Time;durP1;ratioP1;P1;durP2;ratioP2;P2;SDS_P1;SDS_P2;PMS_P1;PMS_P2;Temp;Humidity;BMP_temperature;BMP_pressure;BME280_temperature;BME280_humidity;BME280_pressure;Samples;Min_cycle;Max_cycle;Signal;HPM_P1;HPM_P2
2022/07/26 00:00:09;;;;;;;7.45;1.95;;;19.30;99.90;;;;;;5059393;28;20231;-64
2022/07/26 00:02:36;;;;;;;9.43;2.67;;;19.20;1.00;;;;;;5075062;28;20203;-63
2022/07/26 00:05:03;;;;;;;7.53;2.08;;;19.00;1.00;;;;;;5048436;28;20208;-63
2022/07/26 00:07:30;;;;;;;8.45;2.28;;;19.20;1.00;;;;;;5071259;28;21147;-64
2022/07/26 00:09:57;;;;;;;4.60;1.70;;;19.00;1.00;;;;;;5067800;28;20202;-63
2022/07/26 00:12:25;;;;;;;6.55;2.00;;;19.10;1.00;;;;;;5050300;28;20204;-64
2022/07/26 00:14:52;;;;;;;10.70;1.92;;;19.10;1.00;;;;;;5062420;28;20690;-63
2022/07/26 00:17:19;;;;;;;6.35;2.20;;;19.10;1.00;;;;;;5071072;28;20204;-63
2022/07/26 00:19:45;;;;;;;11.15;2.13;;;18.90;1.00;;;;;;5045890;28;20232;-64
2022/07/26 00:24:56;;;;;;;6.88;1.90;;;19.20;1.00;;;;;;5071289;28;20756;-63
2022/07/26 00:27:25;;;;;;;7.82;2.22;;;19.10;1.00;;;;;;5044970;28;20219;-64
2022/07/26 00:29:52;;;;;;;6.43;2.33;;;;;;;;;;5058887;28;20700;-63
2022/07/26 00:32:19;;;;;;;7.20;2.40;;;;;;;;;;5071600;28;20211;-64
2022/07/26 00:34:46;;;;;;;10.43;2.25;;;19.10;1.00;;;;;;5048822;28;20208;-64
2022/07/26 00:37:13;;;;;;;7.70;2.33;;;;;;;;;;5069529;28;20204;-63
2022/07/26 00:39:39;;;;;;;9.40;2.50;;;19.20;1.00;;;;;;5070708;28;20723;-63
2022/07/26 00:42:07;;;;;;;7.22;1.75;;;19.80;1.00;;;;;;5066243;28;20206;-63
2022/07/26 00:44:38;;;;;;;8.00;2.50;;;19.00;1.00;;;;;;5041403;28;20845;-64
2022/07/26 00:47:06;;;;;;;8.77;2.40;;;19.20;1.00;;;;;;5067356;28;20677;-63
2022/07/26 00:49:33;;;;;;;5.70;2.47;;;19.00;1.00;;;;;;5069936;28;20220;-64
2022/07/26 00:51:59;;;;;;;9.95;2.15;;;19.20;1.00;;;;;;5047470;28;20760;-65
2022/07/26 00:54:27;;;;;;;6.68;2.08;;;19.30;1.00;;;;;;5065322;28;20211;-63
2022/07/26 00:56:54;;;;;;;10.75;2.20;;;;;;;;;;5061084;28;20211;-64
2022/07/26 00:59:21;;;;;;;8.10;1.85;;;19.20;1.00;;;;;;5046397;28;20232;-63
2022/07/26 01:01:50;;;;;;;9.05;2.40;;;19.40;1.00;;;;;;5072764;28;20207;-63
2022/07/26 01:04:17;;;;;;;5.68;1.92;;;19.30;1.00;;;;;;5070624;28;20192;-63
2022/07/26 01:06:43;;;;;;;8.15;1.83;;;19.30;1.00;;;;;;5049710;28;20207;-63
2022/07/26 01:09:11;;;;;;;11.98;2.72;;;19.30;1.00;;;;;;5073737;28;20196;-63
2022/07/26 01:11:38;;;;;;;10.63;2.13;;;19.50;1.00;;;;;;5068172;28;20255;-63
2022/07/26 01:14:05;;;;;;;7.35;2.50;;;20.30;1.00;;;;;;5060826;28;20200;-63
2022/07/26 01:16:31;;;;;;;8.73;2.22;;;19.30;1.00;;;;;;5058723;28;20266;-63
2022/07/26 01:19:00;;;;;;;6.43;2.00;;;19.30;1.00;;;;;;5071014;28;20200;-63
2022/07/26 01:21:31;;;;;;;8.15;2.17;;;19.10;1.00;;;;;;5055397;28;20196;-64
2022/07/26 01:23:58;;;;;;;10.27;2.58;;;19.10;1.00;;;;;;5067411;28;20742;-64
2022/07/26 01:26:25;;;;;;;5.25;1.80;;;19.30;1.00;;;;;;5065105;28;20801;-63
2022/07/26 01:28:52;;;;;;;16.45;2.53;;;19.30;1.00;;;;;;5065027;28;20307;-63
2022/07/26 01:31:19;;;;;;;7.82;2.30;;;19.90;1.00;;;;;;5056034;28;20570;-63
2022/07/26 01:33:47;;;;;;;6.03;2.65;;;19.20;1.00;;;;;;5064795;28;20193;-64
2022/07/26 01:36:14;;;;;;;8.90;2.20;;;19.20;1.00;;;;;;5067734;28;20200;-62
2022/07/26 01:38:42;;;;;;;8.75;2.33;;;19.10;1.00;;;;;;5042713;28;20231;-64
2022/07/26 01:41:10;;;;;;;8.55;2.33;;;;;;;;;;5071116;28;20228;-62
2022/07/26 01:43:37;;;;;;;12.95;2.42;;;19.30;1.00;;;;;;5067448;28;20220;-63
2022/07/26 01:46:06;;;;;;;8.80;2.13;;;19.00;1.00;;;;;;5059392;28;20204;-63
2022/07/26 01:48:33;;;;;;;8.95;2.58;;;18.90;1.00;;;;;;5070363;28;20952;-63
2022/07/26 01:51:01;;;;;;;8.05;2.63;;;19.00;1.00;;;;;;5068555;28;20230;-62
2022/07/26 01:53:28;;;;;;;11.30;3.38;;;19.00;1.00;;;;;;5047857;28;20215;-63
2022/07/26 01:55:56;;;;;;;8.75;2.30;;;19.20;1.00;;;;;;5067301;28;20223;-63
2022/07/26 01:58:23;;;;;;;8.27;2.70;;;18.80;1.00;;;;;;5073187;28;20208;-63
2022/07/26 02:00:50;;;;;;;9.98;2.63;;;18.90;1.00;;;;;;5070115;28;20250;-63
2022/07/26 02:03:17;;;;;;;11.68;2.70;;;18.90;1.00;;;;;;5058966;28;20204;-63
2022/07/26 02:05:44;;;;;;;5.18;2.13;;;;;;;;;;5068277;28;20665;-63
2022/07/26 02:08:11;;;;;;;7.28;2.97;;;18.80;1.00;;;;;;5052526;28;20223;-64
2022/07/26 02:13:24;;;;;;;12.88;2.35;;;18.80;1.00;;;;;;5073768;28;20227;-63
2022/07/26 02:15:51;;;;;;;13.93;2.60;;;18.70;1.00;;;;;;5067078;28;20200;-64
2022/07/26 02:18:18;;;;;;;8.23;2.10;;;18.80;1.00;;;;;;5056411;28;20215;-63
2022/07/26 02:20:45;;;;;;;10.57;2.55;;;18.80;1.00;;;;;;5064500;28;20748;-63
2022/07/26 02:23:12;;;;;;;8.40;2.42;;;18.80;1.00;;;;;;5049553;28;20215;-64
2022/07/26 02:25:39;;;;;;;11.98;2.88;;;18.70;1.00;;;;;;5067562;28;20708;-64
2022/07/26 02:28:06;;;;;;;8.65;2.42;;;18.40;1.10;;;;;;5070451;28;20197;-63
2022/07/26 02:30:34;;;;;;;9.88;2.25;;;18.70;1.70;;;;;;5064214;28;20207;-63
2022/07/26 02:33:01;;;;;;;9.80;2.88;;;18.70;5.60;;;;;;5054395;28;20578;-64
2022/07/26 02:35:30;;;;;;;10.82;2.92;;;18.70;8.90;;;;;;5070647;28;20207;-64
2022/07/26 02:38:01;;;;;;;11.63;2.88;;;18.90;10.60;;;;;;5059278;28;20219;-63
2022/07/26 02:40:28;;;;;;;9.98;2.70;;;18.60;12.70;;;;;;5042063;28;20315;-63
2022/07/26 02:42:55;;;;;;;9.80;2.33;;;18.60;15.20;;;;;;5061175;28;20235;-64
2022/07/26 02:45:22;;;;;;;10.32;2.70;;;;;;;;;;5072423;28;20196;-63
2022/07/26 02:47:52;;;;;;;12.30;2.50;;;18.60;17.00;;;;;;5058029;28;20207;-64
2022/07/26 02:50:20;;;;;;;9.23;2.72;;;18.60;18.30;;;;;;5070554;28;20203;-63
2022/07/26 02:52:47;;;;;;;9.38;2.90;;;18.40;24.00;;;;;;5070135;28;20227;-63
2022/07/26 02:55:15;;;;;;;13.57;3.00;;;18.60;22.60;;;;;;5049487;28;20205;-64
2022/07/26 02:57:41;;;;;;;11.23;2.65;;;18.60;23.10;;;;;;5068291;28;20200;-64
2022/07/26 03:00:11;;;;;;;16.00;2.78;;;18.60;25.10;;;;;;5074015;28;20268;-64
2022/07/26 03:02:38;;;;;;;6.55;2.22;;;18.80;29.30;;;;;;5060673;28;20196;-64
2022/07/26 03:05:08;;;;;;;9.90;2.65;;;18.60;26.60;;;;;;5073137;28;20196;-64
2022/07/26 03:07:35;;;;;;;10.10;2.83;;;18.60;26.30;;;;;;5064354;28;20215;-63
2022/07/26 03:10:02;;;;;;;3.90;2.13;;;18.50;27.20;;;;;;5073526;28;20196;-64
2022/07/26 03:12:29;;;;;;;10.02;2.58;;;18.50;30.00;;;;;;5051941;28;20211;-63
2022/07/26 03:14:55;;;;;;;13.38;2.55;;;18.50;31.50;;;;;;5071910;28;20285;-63
2022/07/26 03:17:22;;;;;;;8.13;2.22;;;18.50;32.80;;;;;;5075501;28;20293;-63
2022/07/26 03:19:49;;;;;;;8.85;2.25;;;;;;;;;;5061704;28;20316;-63
2022/07/26 03:22:18;;;;;;;11.38;2.75;;;16.60;38.00;;;;;;5072408;28;20200;-64
2022/07/26 03:24:45;;;;;;;7.93;2.30;;;;;;;;;;5070407;28;20200;-64
2022/07/26 03:27:12;;;;;;;12.10;2.80;;;18.40;37.10;;;;;;5053993;28;20219;-64
2022/07/26 03:29:39;;;;;;;7.40;2.58;;;18.40;39.10;;;;;;5071178;28;20196;-64
2022/07/26 03:32:07;;;;;;;7.72;2.53;;;18.50;42.00;;;;;;5074556;28;20204;-64
2022/07/26 03:34:34;;;;;;;8.77;2.65;;;18.50;40.70;;;;;;5061566;28;20234;-64
2022/07/26 03:37:01;;;;;;;8.20;2.42;;;18.40;39.50;;;;;;5065951;28;20204;-63
2022/07/26 03:39:29;;;;;;;7.18;2.55;;;18.20;43.70;;;;;;5072302;28;20207;-64
2022/07/26 03:41:56;;;;;;;10.85;2.80;;;18.40;42.10;;;;;;5052390;28;20216;-64
2022/07/26 03:44:23;;;;;;;7.22;2.65;;;18.50;46.30;;;;;;5067236;28;20231;-63
2022/07/26 03:46:50;;;;;;;6.93;3.45;;;18.40;44.40;;;;;;5070138;28;20188;-63
2022/07/26 03:49:16;;;;;;;7.18;2.45;;;18.40;44.10;;;;;;5067765;28;20203;-64
2022/07/26 03:51:43;;;;;;;6.93;2.30;;;18.10;48.70;;;;;;5060113;28;20220;-64
2022/07/26 03:54:10;;;;;;;8.88;2.63;;;18.40;47.60;;;;;;5073011;28;20192;-63
2022/07/26 03:56:38;;;;;;;8.60;2.70;;;18.50;50.40;;;;;;5045186;28;20203;-64
2022/07/26 03:59:06;;;;;;;7.28;2.40;;;18.30;52.10;;;;;;5074002;28;20736;-63
2022/07/26 04:01:34;;;;;;;8.30;2.72;;;18.20;51.90;;;;;;5067640;28;20227;-63
2022/07/26 04:04:01;;;;;;;8.27;2.08;;;18.40;50.40;;;;;;5072168;28;20200;-63
2022/07/26 04:06:29;;;;;;;7.88;2.97;;;;;;;;;;5059406;28;20684;-63
2022/07/26 04:08:56;;;;;;;10.57;2.83;;;18.50;57.50;;;;;;5060612;28;20662;-64
2022/07/26 04:11:22;;;;;;;14.55;3.17;;;18.40;56.40;;;;;;5070206;28;20210;-64
2022/07/26 04:13:51;;;;;;;9.15;2.67;;;19.30;60.20;;;;;;5051727;28;20211;-64
2022/07/26 04:16:17;;;;;;;6.05;2.63;;;18.40;67.10;;;;;;5067314;28;20244;-63
2022/07/26 04:18:44;;;;;;;6.25;2.33;;;18.50;68.00;;;;;;5061887;28;20916;-61
2022/07/26 04:21:11;;;;;;;8.02;2.80;;;18.50;69.70;;;;;;5065397;28;20278;-61
2022/07/26 04:23:38;;;;;;;7.85;2.63;;;18.60;75.90;;;;;;5057865;28;20231;-61
2022/07/26 04:26:05;;;;;;;9.27;2.85;;;18.30;78.50;;;;;;5068079;28;20203;-61
2022/07/26 04:28:32;;;;;;;13.13;3.00;;;17.50;82.60;;;;;;5055845;28;20211;-61
2022/07/26 04:31:01;;;;;;;7.95;2.88;;;18.60;80.70;;;;;;5065168;28;20779;-61
2022/07/26 04:33:28;;;;;;;12.90;2.67;;;18.80;91.60;;;;;;5066989;28;20200;-62
2022/07/26 04:35:54;;;;;;;5.55;2.40;;;18.70;94.60;;;;;;5069118;28;20192;-62
2022/07/26 04:38:22;;;;;;;5.53;2.15;;;18.40;95.30;;;;;;5059949;28;20204;-62
2022/07/26 04:40:50;;;;;;;7.18;2.50;;;18.50;94.10;;;;;;5067846;28;20224;-62
2022/07/26 04:43:16;;;;;;;6.28;2.28;;;18.30;96.70;;;;;;5061012;28;20216;-63
2022/07/26 04:45:44;;;;;;;5.95;1.88;;;;;;;;;;5045722;28;20197;-65
2022/07/26 04:48:13;;;;;;;3.22;1.90;;;18.20;97.60;;;;;;5072073;28;21004;-65
2022/07/26 04:50:40;;;;;;;5.57;1.95;;;18.40;99.90;;;;;;5068202;28;20208;-64
2022/07/26 04:53:08;;;;;;;5.47;2.40;;;18.20;99.40;;;;;;5058624;28;20200;-65
2022/07/26 04:55:35;;;;;;;6.18;2.35;;;18.20;99.90;;;;;;5069681;28;20646;-65
2022/07/26 04:58:01;;;;;;;4.40;2.05;;;18.20;99.50;;;;;;5069508;28;20569;-63
2022/07/26 05:00:28;;;;;;;6.13;3.00;;;18.20;99.90;;;;;;5048648;28;20221;-63
2022/07/26 05:02:57;;;;;;;8.35;2.30;;;18.30;99.90;;;;;;5072471;28;20791;-63
2022/07/26 05:05:27;;;;;;;7.30;2.30;;;18.40;99.90;;;;;;5070037;28;20196;-63
2022/07/26 05:07:56;;;;;;;3.80;2.10;;;18.30;99.90;;;;;;5064281;28;20223;-63
2022/07/26 05:10:28;;;;;;;6.90;2.13;;;18.20;99.90;;;;;;5059027;28;20752;-63
2022/07/26 05:12:55;;;;;;;7.82;1.90;;;17.90;99.90;;;;;;5060819;28;20593;-63
2022/07/26 05:15:22;;;;;;;9.23;2.28;;;18.00;99.90;;;;;;5055864;28;20200;-63
2022/07/26 05:17:49;;;;;;;7.93;2.10;;;18.10;99.90;;;;;;5064286;28;20208;-63
2022/07/26 05:20:16;;;;;;;4.43;2.17;;;18.20;99.90;;;;;;5065797;28;20212;-62
2022/07/26 05:22:45;;;;;;;4.28;1.85;;;;;;;;;;5067064;28;20197;-63
2022/07/26 05:25:12;;;;;;;4.82;1.75;;;18.10;99.90;;;;;;5060006;28;20200;-64
2022/07/26 05:27:40;;;;;;;6.55;2.17;;;;;;;;;;5067250;28;20196;-63
2022/07/26 05:30:08;;;;;;;6.10;1.80;;;18.30;99.90;;;;;;5067801;28;20196;-63
2022/07/26 05:32:35;;;;;;;5.18;2.33;;;18.10;99.90;;;;;;5049074;28;20208;-63
2022/07/26 05:35:02;;;;;;;3.72;1.77;;;18.10;99.90;;;;;;5071681;28;20200;-63
2022/07/26 05:37:29;;;;;;;6.07;2.00;;;18.20;99.90;;;;;;5061625;28;20214;-63
2022/07/26 05:39:57;;;;;;;6.55;2.22;;;18.20;99.90;;;;;;5059513;28;20196;-63
2022/07/26 05:42:24;;;;;;;7.18;1.75;;;18.10;99.90;;;;;;5061240;28;20244;-63
2022/07/26 05:44:51;;;;;;;6.07;2.72;;;18.20;99.90;;;;;;5069590;28;20211;-63
2022/07/26 05:47:18;;;;;;;8.18;2.05;;;18.30;99.90;;;;;;5046571;28;20638;-63
2022/07/26 05:49:45;;;;;;;4.85;1.50;;;18.30;99.90;;;;;;5065994;28;20281;-64
2022/07/26 05:52:27;;;;;;;2.90;1.33;;;;;;;;;;5021522;28;20240;-64
2022/07/26 05:54:54;;;;;;;3.97;1.50;;;18.10;97.10;;;;;;5068187;28;20972;-63
2022/07/26 05:57:22;;;;;;;7.18;1.15;;;18.00;95.60;;;;;;5056533;28;20708;-63
2022/07/26 05:59:49;;;;;;;8.23;1.52;;;18.00;95.80;;;;;;5065616;28;20209;-63
2022/07/26 06:02:16;;;;;;;2.15;1.02;;;17.70;94.10;;;;;;5056187;28;20224;-64
2022/07/26 06:04:44;;;;;;;1.05;0.60;;;17.50;90.10;;;;;;5058041;28;20364;-63
2022/07/26 06:07:11;;;;;;;6.22;1.23;;;17.50;89.60;;;;;;5063949;28;20193;-63
2022/07/26 06:09:37;;;;;;;0.77;0.60;;;17.50;90.60;;;;;;5068382;28;20549;-64
2022/07/26 06:12:05;;;;;;;3.78;0.77;;;17.50;95.30;;;;;;5061131;28;20200;-64
2022/07/26 06:14:33;;;;;;;3.90;0.60;;;17.60;94.30;;;;;;5066223;28;20201;-63
2022/07/26 06:17:01;;;;;;;6.28;0.80;;;17.60;95.90;;;;;;5069248;28;20852;-65
2022/07/26 06:19:28;;;;;;;2.15;0.75;;;17.70;94.50;;;;;;5043307;28;20206;-63
2022/07/26 06:21:55;;;;;;;3.85;0.82;;;17.60;94.30;;;;;;5068936;28;20224;-63
2022/07/26 06:24:22;;;;;;;5.25;0.93;;;17.30;92.80;;;;;;5063665;28;20192;-64
2022/07/26 06:26:52;;;;;;;1.73;0.88;;;17.90;95.70;;;;;;5056498;28;20227;-63
2022/07/26 06:29:18;;;;;;;4.38;0.73;;;17.70;94.10;;;;;;5069197;28;20687;-63
2022/07/26 06:31:47;;;;;;;8.57;1.08;;;17.70;92.10;;;;;;5062690;28;21377;-63
2022/07/26 06:34:14;;;;;;;3.53;0.85;;;18.00;94.30;;;;;;5048813;28;20218;-63
2022/07/26 06:36:41;;;;;;;1.52;0.70;;;17.80;92.30;;;;;;5064608;28;20197;-64
2022/07/26 06:39:08;;;;;;;3.88;1.05;;;17.70;91.10;;;;;;5063755;28;20261;-64
2022/07/26 06:41:35;;;;;;;4.40;1.17;;;17.70;91.30;;;;;;5052788;28;20731;-63
2022/07/26 06:44:02;;;;;;;4.25;1.00;;;17.80;88.60;;;;;;5060882;28;20219;-64
2022/07/26 06:46:29;;;;;;;2.50;0.73;;;;;;;;;;5069453;28;20200;-63
2022/07/26 06:48:57;;;;;;;6.75;0.77;;;18.40;83.30;;;;;;5046824;28;21119;-63
2022/07/26 06:51:24;;;;;;;2.28;0.52;;;17.70;79.80;;;;;;5070344;28;20240;-63
2022/07/26 06:53:51;;;;;;;5.15;0.90;;;17.70;81.50;;;;;;5065595;28;20203;-63
2022/07/26 06:56:18;;;;;;;3.03;0.70;;;17.40;79.10;;;;;;5069961;28;20208;-64
2022/07/26 06:58:45;;;;;;;2.05;0.63;;;17.00;88.20;;;;;;5058326;28;20204;-64
2022/07/26 07:01:12;;;;;;;2.38;0.50;;;16.90;83.20;;;;;;5067056;28;20254;-63
2022/07/26 07:03:39;;;;;;;2.15;0.93;;;18.50;89.70;;;;;;5064302;28;20779;-63
2022/07/26 07:06:07;;;;;;;1.13;0.80;;;16.60;83.30;;;;;;5046067;28;20196;-63
2022/07/26 07:08:35;;;;;;;1.85;0.63;;;16.60;82.20;;;;;;5060821;28;20201;-63
2022/07/26 07:11:02;;;;;;;0.93;0.63;;;18.70;90.80;;;;;;5066574;28;20300;-63
2022/07/26 07:13:29;;;;;;;2.20;0.80;;;16.80;84.90;;;;;;5059635;28;20582;-62
2022/07/26 07:15:55;;;;;;;5.13;1.05;;;17.80;89.30;;;;;;5064984;28;20188;-63
2022/07/26 07:18:22;;;;;;;2.97;0.90;;;17.00;84.60;;;;;;5068818;28;20207;-63
2022/07/26 07:20:49;;;;;;;3.20;0.80;;;17.00;91.20;;;;;;5029342;28;21883;-64
2022/07/26 07:23:21;;;;;;;5.70;0.90;;;17.20;87.80;;;;;;5056385;28;20724;-64
2022/07/26 07:25:47;;;;;;;3.17;0.88;;;17.20;84.70;;;;;;5062277;28;20204;-63
2022/07/26 07:28:14;;;;;;;3.15;1.48;;;17.30;90.90;;;;;;5064809;28;20199;-63
2022/07/26 07:30:41;;;;;;;3.63;0.90;;;17.30;88.30;;;;;;5069962;28;20207;-63
2022/07/26 07:33:11;;;;;;;1.05;0.60;;;17.00;67.50;;;;;;5067383;28;20624;-64
2022/07/26 07:35:38;;;;;;;2.17;0.90;;;17.10;62.10;;;;;;5064719;28;22972;-63
2022/07/26 07:38:05;;;;;;;7.97;1.17;;;17.30;69.60;;;;;;5051768;28;20215;-64
2022/07/26 07:40:33;;;;;;;3.45;0.88;;;17.40;68.00;;;;;;5059843;28;20200;-63
2022/07/26 07:43:00;;;;;;;1.10;0.60;;;17.40;63.80;;;;;;5065008;28;20608;-63
2022/07/26 07:45:27;;;;;;;2.95;0.60;;;17.50;53.10;;;;;;5068282;28;20204;-63
2022/07/26 07:47:54;;;;;;;5.90;0.70;;;17.50;48.40;;;;;;5072287;28;20200;-64
2022/07/26 07:50:21;;;;;;;5.82;0.90;;;19.20;45.80;;;;;;5059060;28;20223;-63
2022/07/26 07:52:48;;;;;;;2.20;0.98;;;17.40;43.30;;;;;;5051570;28;20235;-63
2022/07/26 07:55:14;;;;;;;1.73;0.80;;;17.50;47.40;;;;;;5072395;28;20923;-63
2022/07/26 07:57:43;;;;;;;2.00;0.90;;;17.40;51.00;;;;;;5067187;28;20200;-63
2022/07/26 08:00:11;;;;;;;3.25;1.00;;;17.60;50.00;;;;;;5064985;28;20203;-63
2022/07/26 08:02:38;;;;;;;1.58;0.70;;;17.80;55.70;;;;;;5066566;28;20224;-63
2022/07/26 08:05:06;;;;;;;3.92;0.98;;;17.70;45.80;;;;;;5073520;28;20204;-63
2022/07/26 08:07:33;;;;;;;4.20;0.90;;;17.50;35.50;;;;;;5048825;28;20215;-63
2022/07/26 08:10:00;;;;;;;10.35;1.40;;;17.50;30.30;;;;;;5073953;28;20677;-63
2022/07/26 08:12:27;;;;;;;3.90;0.80;;;17.30;31.20;;;;;;5069177;28;20200;-63
2022/07/26 08:14:55;;;;;;;3.78;1.05;;;17.50;51.50;;;;;;5060651;28;20207;-63
2022/07/26 08:17:22;;;;;;;4.85;1.10;;;17.30;48.60;;;;;;5069137;28;20196;-63
2022/07/26 08:19:49;;;;;;;7.18;1.55;;;17.20;46.40;;;;;;5070913;28;20231;-63
2022/07/26 08:22:16;;;;;;;4.45;0.75;;;17.60;53.70;;;;;;5058211;28;20223;-63
2022/07/26 08:24:44;;;;;;;4.60;1.27;;;17.10;49.90;;;;;;5063800;28;20780;-63
2022/07/26 08:27:11;;;;;;;7.10;0.95;;;17.00;42.20;;;;;;5068125;28;20200;-63
2022/07/26 08:29:38;;;;;;;3.95;1.38;;;17.10;38.50;;;;;;5069916;28;20215;-63
2022/07/26 08:32:06;;;;;;;4.88;0.90;;;17.20;46.80;;;;;;5065438;28;20206;-63
2022/07/26 08:34:33;;;;;;;9.88;1.20;;;;;;;;;;5074035;28;20200;-63
2022/07/26 08:37:00;;;;;;;4.35;0.88;;;17.30;38.80;;;;;;5073278;28;20219;-64
2022/07/26 08:39:27;;;;;;;3.10;0.70;;;17.00;20.30;;;;;;5051132;28;20223;-63
2022/07/26 08:41:54;;;;;;;1.88;1.05;;;17.30;18.30;;;;;;5068319;28;20220;-63
2022/07/26 08:44:21;;;;;;;3.17;0.80;;;17.30;6.20;;;;;;5066813;28;20273;-62
2022/07/26 08:46:48;;;;;;;4.95;0.60;;;17.30;1.00;;;;;;5060118;28;21030;-63
2022/07/26 08:49:16;;;;;;;2.80;0.95;;;17.90;4.70;;;;;;5069218;28;20204;-63
2022/07/26 08:51:44;;;;;;;2.88;1.00;;;17.60;1.00;;;;;;5066317;28;20229;-63
2022/07/26 08:54:13;;;;;;;4.22;0.60;;;18.60;1.00;;;;;;5048033;28;20239;-62
2022/07/26 08:56:42;;;;;;;2.20;0.90;;;18.00;1.00;;;;;;5069836;28;20208;-62
2022/07/26 08:59:13;;;;;;;3.55;0.90;;;18.10;1.00;;;;;;5066533;28;20207;-63
2022/07/26 09:01:51;;;;;;;2.58;0.93;;;18.10;99.90;;;;;;5056932;28;20234;-63
2022/07/26 09:04:20;;;;;;;1.95;0.77;;;18.20;99.90;;;;;;5061821;28;20682;-63
2022/07/26 09:06:58;;;;;;;4.40;0.90;;;18.20;1.00;;;;;;5070763;28;20595;-62
2022/07/26 09:09:25;;;;;;;4.20;1.17;;;18.20;99.90;;;;;;5028184;28;20274;-62
2022/07/26 09:11:52;;;;;;;2.20;0.85;;;18.00;99.90;;;;;;5061450;28;20201;-63
2022/07/26 09:14:19;;;;;;;6.40;1.27;;;18.10;99.90;;;;;;5061983;28;20204;-63
2022/07/26 09:16:58;;;;;;;2.05;0.68;;;17.70;1.00;;;;;;5060363;28;20670;-62
2022/07/26 09:19:27;;;;;;;3.45;1.00;;;17.50;1.00;;;;;;5068023;28;20204;-62
2022/07/26 09:21:56;;;;;;;2.53;0.93;;;17.50;99.90;;;;;;5048960;28;20227;-62
2022/07/26 09:24:35;;;;;;;2.72;1.10;;;17.40;99.90;;;;;;5043188;28;20327;-63
2022/07/26 09:27:05;;;;;;;2.42;0.70;;;17.70;99.90;;;;;;5050558;28;20192;-62
2022/07/26 09:29:43;;;;;;;2.20;0.85;;;17.60;99.90;;;;;;5053332;28;20677;-62
2022/07/26 09:32:11;;;;;;;2.47;1.00;;;17.70;99.90;;;;;;5071243;28;20665;-62
2022/07/26 09:34:40;;;;;;;3.28;1.02;;;17.80;99.90;;;;;;5052236;28;20208;-62
2022/07/26 09:37:07;;;;;;;1.85;0.70;;;18.00;99.90;;;;;;5066355;28;20221;-62
2022/07/26 09:39:52;;;;;;;3.63;0.90;;;18.10;99.90;;;;;;5052297;28;20696;-63
2022/07/26 09:42:19;;;;;;;3.50;1.00;;;;;;;;;;5057250;28;20249;-62
2022/07/26 09:44:46;;;;;;;3.67;1.17;;;18.10;99.90;;;;;;5049862;28;20200;-62
2022/07/26 09:47:13;;;;;;;7.28;1.40;;;17.90;99.90;;;;;;5068009;28;20193;-61
2022/07/26 09:49:42;;;;;;;3.03;0.82;;;18.20;99.90;;;;;;5057425;28;20696;-62
2022/07/26 09:52:15;;;;;;;6.93;1.27;;;18.20;99.90;;;;;;5064316;28;20243;-61
2022/07/26 09:54:44;;;;;;;2.42;0.70;;;17.70;99.90;;;;;;5043693;28;25871;-64
2022/07/26 09:57:12;;;;;;;2.63;1.08;;;18.00;99.90;;;;;;5064735;28;20208;-62
2022/07/26 09:59:38;;;;;;;1.77;0.80;;;18.20;99.90;;;;;;5046707;28;20228;-62
2022/07/26 10:02:06;;;;;;;2.00;0.88;;;18.10;99.90;;;;;;5067954;28;20220;-63
2022/07/26 10:04:33;;;;;;;5.35;0.95;;;;;;;;;;5059613;28;20207;-62
2022/07/26 10:07:05;;;;;;;3.53;0.95;;;18.10;99.90;;;;;;5053263;28;21024;-62
2022/07/26 10:09:41;;;;;;;1.92;0.88;;;18.00;99.90;;;;;;5065253;28;20266;-62
2022/07/26 10:12:12;;;;;;;4.75;1.15;;;18.10;99.90;;;;;;5045311;28;20295;-62
2022/07/26 10:14:46;;;;;;;2.35;0.93;;;18.10;99.90;;;;;;5054297;28;20323;-63
2022/07/26 10:17:46;;;;;;;4.15;1.15;;;18.20;99.90;;;;;;5060991;28;20196;-62
2022/07/26 10:20:40;;;;;;;3.58;1.13;;;18.30;99.90;;;;;;5065468;28;20212;-62
2022/07/26 10:23:42;;;;;;;6.30;1.15;;;17.90;99.90;;;;;;5064581;28;20220;-62
2022/07/26 10:26:12;;;;;;;2.60;0.80;;;18.10;99.90;;;;;;5069091;28;20678;-62
2022/07/26 10:28:40;;;;;;;2.55;0.80;;;18.30;99.90;;;;;;5044340;28;20204;-62
2022/07/26 10:31:31;;;;;;;5.38;1.10;;;18.50;99.90;;;;;;5054662;28;20227;-62
2022/07/26 10:34:01;;;;;;;2.45;1.02;;;18.40;99.90;;;;;;5065870;28;20239;-64
2022/07/26 10:36:32;;;;;;;1.52;0.75;;;18.60;99.90;;;;;;5063795;28;20223;-64
2022/07/26 10:39:10;;;;;;;3.42;1.27;;;18.60;99.90;;;;;;5056208;28;20384;-64
2022/07/26 10:41:41;;;;;;;4.30;1.40;;;18.30;99.90;;;;;;5046158;28;20216;-64
2022/07/26 10:44:22;;;;;;;3.60;1.30;;;18.30;99.90;;;;;;5062307;28;20228;-63
2022/07/26 10:47:04;;;;;;;7.50;1.90;;;18.30;99.90;;;;;;5063798;28;20204;-62
2022/07/26 10:49:36;;;;;;;5.50;1.42;;;18.30;99.90;;;;;;5050314;28;20253;-64
2022/07/26 10:52:12;;;;;;;7.72;1.30;;;18.30;99.90;;;;;;5041246;28;20716;-64
2022/07/26 10:55:08;;;;;;;8.68;1.20;;;18.30;99.90;;;;;;5058899;28;20208;-64
2022/07/26 10:57:37;;;;;;;7.03;1.58;;;18.40;99.90;;;;;;4986233;28;20209;-64
2022/07/26 11:00:09;;;;;;;4.57;1.25;;;18.50;99.90;;;;;;5064175;28;20673;-63
2022/07/26 11:02:36;;;;;;;5.28;1.75;;;18.30;99.90;;;;;;5068802;28;20220;-63
2022/07/26 11:05:11;;;;;;;11.77;2.60;;;18.40;99.90;;;;;;5059667;28;20211;-63
2022/07/26 11:07:51;;;;;;;10.15;2.00;;;16.80;99.90;;;;;;5056899;28;20200;-63
2022/07/26 11:10:24;;;;;;;12.35;2.70;;;15.80;99.90;;;;;;5047665;28;21405;-63
2022/07/26 11:13:05;;;;;;;10.23;1.83;;;17.90;99.90;;;;;;5037356;28;20689;-63
2022/07/26 11:15:32;;;;;;;4.90;1.55;;;17.80;99.90;;;;;;5065959;28;20204;-63
2022/07/26 11:18:17;;;;;;;7.38;1.92;;;18.10;99.90;;;;;;5067132;28;20207;-63
2022/07/26 11:20:47;;;;;;;4.30;2.22;;;18.10;99.90;;;;;;5057889;28;20207;-63
2022/07/26 11:23:26;;;;;;;7.85;1.98;;;18.20;99.90;;;;;;5053823;28;20232;-63
2022/07/26 11:26:12;;;;;;;7.32;1.98;;;19.30;99.90;;;;;;5048881;28;21523;-63
2022/07/26 11:28:51;;;;;;;8.65;1.83;;;18.20;99.90;;;;;;5047787;28;20212;-63
2022/07/26 11:31:19;;;;;;;8.95;2.10;;;18.10;99.90;;;;;;5070011;28;20210;-63
2022/07/26 11:33:49;;;;;;;9.68;2.47;;;15.50;99.90;;;;;;5062495;28;20227;-61
2022/07/26 11:36:16;;;;;;;7.20;2.05;;;18.30;99.90;;;;;;5065417;28;20200;-61
2022/07/26 11:38:48;;;;;;;3.83;1.45;;;18.30;99.90;;;;;;5054585;28;20212;-61
2022/07/26 11:41:19;;;;;;;7.90;1.80;;;18.60;99.90;;;;;;5060605;28;20215;-61
2022/07/26 11:43:45;;;;;;;8.85;1.60;;;18.40;99.90;;;;;;5041095;28;20236;-60
2022/07/26 11:46:12;;;;;;;6.53;1.42;;;18.30;99.90;;;;;;5058253;28;20717;-60
2022/07/26 11:48:46;;;;;;;7.45;1.80;;;18.10;99.90;;;;;;5063651;28;20206;-61
2022/07/26 11:51:14;;;;;;;7.03;1.77;;;18.40;99.90;;;;;;5065103;28;20224;-60
2022/07/26 11:53:41;;;;;;;8.43;1.60;;;18.30;99.90;;;;;;5063502;28;20208;-61
2022/07/26 11:56:17;;;;;;;5.78;1.50;;;18.50;99.90;;;;;;5059804;28;20231;-60
2022/07/26 11:58:46;;;;;;;4.15;1.33;;;18.40;99.90;;;;;;5031328;28;20216;-61
2022/07/26 12:01:15;;;;;;;6.68;1.33;;;18.50;99.90;;;;;;5038674;28;20212;-61
2022/07/26 12:03:44;;;;;;;7.43;1.73;;;18.60;99.90;;;;;;5059760;28;20270;-61
2022/07/26 12:06:18;;;;;;;5.00;1.42;;;18.50;99.90;;;;;;5039596;28;20240;-63
2022/07/26 12:08:47;;;;;;;5.93;1.50;;;18.60;99.90;;;;;;5069595;28;20207;-62
2022/07/26 12:11:19;;;;;;;9.68;2.25;;;18.50;99.90;;;;;;5054970;28;20320;-62
2022/07/26 12:13:52;;;;;;;7.00;1.30;;;19.60;99.90;;;;;;5040783;28;20222;-62
2022/07/26 12:16:41;;;;;;;6.15;1.70;;;18.40;99.90;;;;;;5066658;28;20576;-62
2022/07/26 12:19:10;;;;;;;4.13;1.17;;;18.60;99.90;;;;;;5060715;28;21123;-63
2022/07/26 12:21:43;;;;;;;4.85;1.25;;;18.40;99.90;;;;;;5056894;28;20204;-63
2022/07/26 12:24:33;;;;;;;5.90;1.85;;;18.40;99.90;;;;;;5060576;28;20231;-63
2022/07/26 12:27:11;;;;;;;4.78;1.48;;;18.30;99.90;;;;;;5055383;28;20192;-63
2022/07/26 12:30:13;;;;;;;6.63;1.52;;;18.50;99.90;;;;;;5051133;28;20200;-64
2022/07/26 12:32:47;;;;;;;9.23;1.75;;;18.50;99.90;;;;;;5059875;28;20533;-63
2022/07/26 12:35:16;;;;;;;6.75;1.50;;;18.40;99.90;;;;;;5067290;28;20575;-63
2022/07/26 12:37:55;;;;;;;6.60;1.40;;;18.50;99.90;;;;;;5047270;28;20220;-64
2022/07/26 12:40:23;;;;;;;3.75;1.40;;;18.20;99.90;;;;;;5058903;28;20220;-63
2022/07/26 12:43:02;;;;;;;3.72;1.00;;;;;;;;;;5050828;28;20232;-63
2022/07/26 12:45:30;;;;;;;2.45;1.40;;;18.70;99.90;;;;;;5054097;28;20200;-63
2022/07/26 12:47:58;;;;;;;3.10;1.10;;;18.90;99.90;;;;;;5041922;28;20196;-66
2022/07/26 12:50:27;;;;;;;6.72;1.77;;;19.00;99.90;;;;;;5067726;28;20192;-63
2022/07/26 12:53:01;;;;;;;7.05;1.40;;;19.10;99.90;;;;;;5045195;28;20228;-63
2022/07/26 12:55:29;;;;;;;11.88;1.77;;;18.90;99.90;;;;;;5063266;28;20287;-63
2022/07/26 12:57:58;;;;;;;3.05;1.10;;;18.90;99.90;;;;;;5054132;28;20227;-63
2022/07/26 13:00:25;;;;;;;6.65;1.25;;;18.70;99.90;;;;;;5056322;28;20208;-63
2022/07/26 13:02:54;;;;;;;6.28;1.50;;;19.70;99.90;;;;;;5043322;28;20223;-63
2022/07/26 13:05:21;;;;;;;5.25;1.40;;;18.90;99.90;;;;;;5069959;28;20296;-61
2022/07/26 13:07:50;;;;;;;5.75;1.60;;;18.90;99.90;;;;;;5053311;28;20994;-62